sensor_id;sensor_type;location;lat;lon;timestamp;pressure;altitude;pressure_sealevel;temperature;humidity
20983;BME280;10650;51.528;6.748;2023-05-03T00:02:25;102644.41;;;8.17;61.91
20983;BME280;10650;51.528;6.748;2023-05-03T00:04:53;102644.31;;;8.13;61.98
20983;BME280;10650;51.528;6.748;2023-05-03T00:07:21;102654.78;;;8.07;62.17
20983;BME280;10650;51.528;6.748;2023-05-03T00:09:49;102653.75;;;8.04;62.55
20983;BME280;10650;51.528;6.748;2023-05-03T00:12:18;102659.03;;;8.02;62.83
20983;BME280;10650;51.528;6.748;2023-05-03T00:14:46;102651.84;;;7.98;62.41
20983;BME280;10650;51.528;6.748;2023-05-03T00:17:14;102653.44;;;7.93;62.66
20983;BME280;10650;51.528;6.748;2023-05-03T00:19:42;102651.63;;;7.92;63.08
20983;BME280;10650;51.528;6.748;2023-05-03T00:22:10;102655.94;;;7.88;63.04
20983;BME280;10650;51.528;6.748;2023-05-03T00:24:38;102660.19;;;7.83;63.22
20983;BME280;10650;51.528;6.748;2023-05-03T00:27:06;102659.16;;;7.78;63.59
20983;BME280;10650;51.528;6.748;2023-05-03T00:29:35;102669.81;;;7.78;63.25
20983;BME280;10650;51.528;6.748;2023-05-03T00:32:04;102669.63;;;7.73;63.06
20983;BME280;10650;51.528;6.748;2023-05-03T00:34:32;102662.56;;;7.74;63.75
20983;BME280;10650;51.528;6.748;2023-05-03T00:36:59;102665.19;;;7.72;63.97
20983;BME280;10650;51.528;6.748;2023-05-03T00:39:28;102665.97;;;7.70;64.01
20983;BME280;10650;51.528;6.748;2023-05-03T00:41:57;102662.25;;;7.65;63.86
20983;BME280;10650;51.528;6.748;2023-05-03T00:44:25;102660.28;;;7.59;64.10
20983;BME280;10650;51.528;6.748;2023-05-03T00:46:55;102661.16;;;7.58;64.00
20983;BME280;10650;51.528;6.748;2023-05-03T00:49:23;102664.44;;;7.51;64.39
20983;BME280;10650;51.528;6.748;2023-05-03T00:51:52;102669.84;;;7.52;64.17
20983;BME280;10650;51.528;6.748;2023-05-03T00:54:21;102657.44;;;7.53;64.39
20983;BME280;10650;51.528;6.748;2023-05-03T00:56:49;102657.31;;;7.50;64.72
20983;BME280;10650;51.528;6.748;2023-05-03T00:59:18;102666.16;;;7.49;64.65
20983;BME280;10650;51.528;6.748;2023-05-03T01:01:47;102651.97;;;7.48;64.73
20983;BME280;10650;51.528;6.748;2023-05-03T01:04:17;102659.75;;;7.43;64.79
20983;BME280;10650;51.528;6.748;2023-05-03T01:06:51;102657.78;;;7.38;65.08
20983;BME280;10650;51.528;6.748;2023-05-03T01:09:31;102663.00;;;7.35;65.48
20983;BME280;10650;51.528;6.748;2023-05-03T01:12:12;102660.34;;;7.35;65.29
20983;BME280;10650;51.528;6.748;2023-05-03T01:14:47;102661.22;;;7.34;65.47
20983;BME280;10650;51.528;6.748;2023-05-03T01:17:23;102655.72;;;7.29;65.68
20983;BME280;10650;51.528;6.748;2023-05-03T01:19:59;102660.97;;;7.27;66.12
20983;BME280;10650;51.528;6.748;2023-05-03T01:22:35;102659.19;;;7.26;66.24
20983;BME280;10650;51.528;6.748;2023-05-03T01:25:07;102655.56;;;7.24;66.39
20983;BME280;10650;51.528;6.748;2023-05-03T01:27:36;102662.59;;;7.22;66.61
20983;BME280;10650;51.528;6.748;2023-05-03T01:30:06;102667.72;;;7.18;66.55
20983;BME280;10650;51.528;6.748;2023-05-03T01:32:44;102661.44;;;7.16;66.99
20983;BME280;10650;51.528;6.748;2023-05-03T01:35:19;102663.22;;;7.15;66.84
20983;BME280;10650;51.528;6.748;2023-05-03T01:37:50;102673.66;;;7.10;66.76
20983;BME280;10650;51.528;6.748;2023-05-03T01:40:21;102664.78;;;7.10;66.98
20983;BME280;10650;51.528;6.748;2023-05-03T01:42:50;102672.59;;;7.05;67.03
20983;BME280;10650;51.528;6.748;2023-05-03T01:45:19;102667.28;;;7.05;67.75
20983;BME280;10650;51.528;6.748;2023-05-03T01:47:47;102670.63;;;7.00;67.41
20983;BME280;10650;51.528;6.748;2023-05-03T01:50:15;102668.59;;;6.92;67.81
20983;BME280;10650;51.528;6.748;2023-05-03T01:52:43;102677.47;;;6.93;68.07
20983;BME280;10650;51.528;6.748;2023-05-03T01:55:11;102679.28;;;6.94;67.92
20983;BME280;10650;51.528;6.748;2023-05-03T01:57:40;102679.06;;;6.88;67.77
20983;BME280;10650;51.528;6.748;2023-05-03T02:00:09;102670.63;;;6.75;68.21
20983;BME280;10650;51.528;6.748;2023-05-03T02:02:37;102678.47;;;6.72;68.40
20983;BME280;10650;51.528;6.748;2023-05-03T02:05:05;102681.19;;;6.74;68.71
20983;BME280;10650;51.528;6.748;2023-05-03T02:07:33;102688.28;;;6.73;68.80
20983;BME280;10650;51.528;6.748;2023-05-03T02:10:01;102686.50;;;6.74;69.06
20983;BME280;10650;51.528;6.748;2023-05-03T02:12:29;102689.22;;;6.75;68.80
20983;BME280;10650;51.528;6.748;2023-05-03T02:14:58;102698.13;;;6.78;68.73
20983;BME280;10650;51.528;6.748;2023-05-03T02:17:26;102688.28;;;6.73;69.01
20983;BME280;10650;51.528;6.748;2023-05-03T02:19:54;102690.84;;;6.72;69.17
20983;BME280;10650;51.528;6.748;2023-05-03T02:22:22;102697.47;;;6.59;69.44
20983;BME280;10650;51.528;6.748;2023-05-03T02:24:50;102700.13;;;6.59;69.72
20983;BME280;10650;51.528;6.748;2023-05-03T02:27:18;102694.59;;;6.54;69.84
20983;BME280;10650;51.528;6.748;2023-05-03T02:29:46;102699.75;;;6.50;69.55
20983;BME280;10650;51.528;6.748;2023-05-03T02:32:15;102689.22;;;6.53;69.93
20983;BME280;10650;51.528;6.748;2023-05-03T02:34:46;102698.31;;;6.58;69.98
20983;BME280;10650;51.528;6.748;2023-05-03T02:37:14;102701.97;;;6.62;69.61
20983;BME280;10650;51.528;6.748;2023-05-03T02:39:42;102707.09;;;6.57;69.73
20983;BME280;10650;51.528;6.748;2023-05-03T02:42:10;102707.03;;;6.55;69.71
20983;BME280;10650;51.528;6.748;2023-05-03T02:44:38;102704.50;;;6.58;69.85
20983;BME280;10650;51.528;6.748;2023-05-03T02:47:06;102703.59;;;6.58;70.11
20983;BME280;10650;51.528;6.748;2023-05-03T02:49:35;102711.56;;;6.58;70.05
20983;BME280;10650;51.528;6.748;2023-05-03T02:52:09;102699.03;;;6.54;69.69
20983;BME280;10650;51.528;6.748;2023-05-03T02:54:38;102696.25;;;6.51;69.79
20983;BME280;10650;51.528;6.748;2023-05-03T02:57:11;102700.22;;;6.39;70.17
20983;BME280;10650;51.528;6.748;2023-05-03T02:59:40;102692.38;;;6.43;70.54
20983;BME280;10650;51.528;6.748;2023-05-03T03:02:10;102693.22;;;6.41;70.61
20983;BME280;10650;51.528;6.748;2023-05-03T03:04:50;102695.03;;;6.43;70.89
20983;BME280;10650;51.528;6.748;2023-05-03T03:07:24;102693.22;;;6.41;70.57
20983;BME280;10650;51.528;6.748;2023-05-03T03:09:52;102687.50;;;6.31;70.74
20983;BME280;10650;51.528;6.748;2023-05-03T03:12:20;102677.72;;;6.30;70.98
20983;BME280;10650;51.528;6.748;2023-05-03T03:14:48;102681.25;;;6.30;71.17
20983;BME280;10650;51.528;6.748;2023-05-03T03:17:16;102676.81;;;6.29;71.56
20983;BME280;10650;51.528;6.748;2023-05-03T03:19:44;102675.91;;;6.29;71.47
20983;BME280;10650;51.528;6.748;2023-05-03T03:22:14;102672.22;;;6.25;71.11
20983;BME280;10650;51.528;6.748;2023-05-03T03:24:42;102673.84;;;6.21;71.25
20983;BME280;10650;51.528;6.748;2023-05-03T03:27:11;102668.00;;;6.08;71.38
20983;BME280;10650;51.528;6.748;2023-05-03T03:29:39;102667.09;;;6.07;71.82
20983;BME280;10650;51.528;6.748;2023-05-03T03:32:07;102663.53;;;6.06;71.60
20983;BME280;10650;51.528;6.748;2023-05-03T03:34:35;102667.19;;;6.10;72.34
20983;BME280;10650;51.528;6.748;2023-05-03T03:37:04;102667.19;;;6.10;72.41
20983;BME280;10650;51.528;6.748;2023-05-03T03:39:33;102665.41;;;6.09;71.97
20983;BME280;10650;51.528;6.748;2023-05-03T03:42:02;102669.84;;;6.10;72.17
20983;BME280;10650;51.528;6.748;2023-05-03T03:44:31;102652.09;;;6.08;72.18
20983;BME280;10650;51.528;6.748;2023-05-03T03:46:59;102649.34;;;6.06;72.42
20983;BME280;10650;51.528;6.748;2023-05-03T03:49:27;102646.50;;;6.01;72.31
20983;BME280;10650;51.528;6.748;2023-05-03T03:51:55;102655.44;;;6.03;72.55
20983;BME280;10650;51.528;6.748;2023-05-03T03:54:23;102648.38;;;6.04;72.44
20983;BME280;10650;51.528;6.748;2023-05-03T03:56:53;102643.78;;;6.00;72.78
20983;BME280;10650;51.528;6.748;2023-05-03T03:59:21;102641.25;;;6.03;72.92
20983;BME280;10650;51.528;6.748;2023-05-03T04:01:50;102632.41;;;6.02;73.04
20983;BME280;10650;51.528;6.748;2023-05-03T04:04:18;102629.88;;;6.05;72.93
20983;BME280;10650;51.528;6.748;2023-05-03T04:06:47;102634.09;;;6.00;73.03
20983;BME280;10650;51.528;6.748;2023-05-03T04:09:15;102627.72;;;5.97;73.10
20983;BME280;10650;51.528;6.748;2023-05-03T04:11:43;102637.66;;;6.01;73.17
20983;BME280;10650;51.528;6.748;2023-05-03T04:14:13;102641.25;;;6.03;72.79
20983;BME280;10650;51.528;6.748;2023-05-03T04:16:41;102651.03;;;6.04;73.30
20983;BME280;10650;51.528;6.748;2023-05-03T04:19:10;102660.69;;;6.02;73.01
20983;BME280;10650;51.528;6.748;2023-05-03T04:21:38;102659.78;;;6.01;73.42
20983;BME280;10650;51.528;6.748;2023-05-03T04:24:07;102660.69;;;6.02;73.34
20983;BME280;10650;51.528;6.748;2023-05-03T04:26:35;102667.78;;;6.03;73.18
20983;BME280;10650;51.528;6.748;2023-05-03T04:29:03;102670.44;;;6.03;73.23
20983;BME280;10650;51.528;6.748;2023-05-03T04:31:34;102668.72;;;6.03;73.32
20983;BME280;10650;51.528;6.748;2023-05-03T04:34:02;102674.03;;;6.03;73.18
20983;BME280;10650;51.528;6.748;2023-05-03T04:36:30;102680.47;;;6.10;73.54
20983;BME280;10650;51.528;6.748;2023-05-03T04:38:59;102677.81;;;6.10;73.50
20983;BME280;10650;51.528;6.748;2023-05-03T04:41:27;102676.19;;;6.14;73.40
20983;BME280;10650;51.528;6.748;2023-05-03T04:43:56;102679.88;;;6.17;73.48
20983;BME280;10650;51.528;6.748;2023-05-03T04:46:24;102686.94;;;6.17;73.38
20983;BME280;10650;51.528;6.748;2023-05-03T04:48:55;102677.28;;;6.19;73.08
20983;BME280;10650;51.528;6.748;2023-05-03T04:51:24;102673.78;;;6.20;73.19
20983;BME280;10650;51.528;6.748;2023-05-03T04:53:54;102677.72;;;6.30;73.20
20983;BME280;10650;51.528;6.748;2023-05-03T04:56:22;102671.69;;;6.34;73.06
20983;BME280;10650;51.528;6.748;2023-05-03T04:58:52;102684.31;;;6.39;72.97
20983;BME280;10650;51.528;6.748;2023-05-03T05:01:20;102679.16;;;6.44;72.68
20983;BME280;10650;51.528;6.748;2023-05-03T05:03:52;102686.53;;;6.51;72.79
20983;BME280;10650;51.528;6.748;2023-05-03T05:06:24;102678.59;;;6.53;72.76
20983;BME280;10650;51.528;6.748;2023-05-03T05:08:53;102697.53;;;6.61;72.84
20983;BME280;10650;51.528;6.748;2023-05-03T05:11:21;102696.03;;;6.69;72.60
20983;BME280;10650;51.528;6.748;2023-05-03T05:13:49;102696.03;;;6.69;72.19
20983;BME280;10650;51.528;6.748;2023-05-03T05:16:17;102701.03;;;6.84;72.23
20983;BME280;10650;51.528;6.748;2023-05-03T05:18:46;102709.41;;;6.95;71.64
20983;BME280;10650;51.528;6.748;2023-05-03T05:21:14;102713.22;;;7.01;71.57
20983;BME280;10650;51.528;6.748;2023-05-03T05:23:44;102720.63;;;7.10;71.23
20983;BME280;10650;51.528;6.748;2023-05-03T05:26:12;102721.66;;;7.14;71.24
20983;BME280;10650;51.528;6.748;2023-05-03T05:28:45;102724.53;;;7.20;71.27
20983;BME280;10650;51.528;6.748;2023-05-03T05:31:16;102726.44;;;7.24;71.08
20983;BME280;10650;51.528;6.748;2023-05-03T05:33:54;102727.50;;;7.29;70.99
20983;BME280;10650;51.528;6.748;2023-05-03T05:36:37;102724.16;;;7.35;70.99
20983;BME280;10650;51.528;6.748;2023-05-03T05:39:37;102725.13;;;7.37;70.37
20983;BME280;10650;51.528;6.748;2023-05-03T05:42:08;102728.75;;;7.39;70.37
20983;BME280;10650;51.528;6.748;2023-05-03T05:44:38;102736.72;;;7.39;70.33
20983;BME280;10650;51.528;6.748;2023-05-03T05:47:13;102733.47;;;7.48;70.64
20983;BME280;10650;51.528;6.748;2023-05-03T05:49:52;102723.81;;;7.50;70.51
20983;BME280;10650;51.528;6.748;2023-05-03T05:52:23;102735.63;;;7.58;70.25
20983;BME280;10650;51.528;6.748;2023-05-03T05:54:53;102727.13;;;7.68;70.75
20983;BME280;10650;51.528;6.748;2023-05-03T05:57:49;102734.63;;;7.80;70.27
20983;BME280;10650;51.528;6.748;2023-05-03T06:00:36;102735.09;;;7.94;70.50
20983;BME280;10650;51.528;6.748;2023-05-03T06:03:07;102742.25;;;7.96;69.66
20983;BME280;10650;51.528;6.748;2023-05-03T06:05:39;102740.84;;;8.08;69.95
20983;BME280;10650;51.528;6.748;2023-05-03T06:08:09;102735.06;;;8.20;69.03
20983;BME280;10650;51.528;6.748;2023-05-03T06:10:38;102734.31;;;8.24;69.38
20983;BME280;10650;51.528;6.748;2023-05-03T06:13:20;102742.38;;;8.27;69.06
20983;BME280;10650;51.528;6.748;2023-05-03T06:15:49;102743.34;;;8.29;68.49
20983;BME280;10650;51.528;6.748;2023-05-03T06:18:18;102743.66;;;8.38;68.38
20983;BME280;10650;51.528;6.748;2023-05-03T06:20:48;102744.03;;;8.51;68.22
20983;BME280;10650;51.528;6.748;2023-05-03T06:23:16;102739.03;;;8.60;67.99
20983;BME280;10650;51.528;6.748;2023-05-03T06:25:49;102743.53;;;8.62;67.52
20983;BME280;10650;51.528;6.748;2023-05-03T06:28:21;102735.03;;;8.74;67.88
20983;BME280;10650;51.528;6.748;2023-05-03T06:31:01;102744.09;;;8.81;66.50
20983;BME280;10650;51.528;6.748;2023-05-03T06:33:33;102750.44;;;8.85;66.49
20983;BME280;10650;51.528;6.748;2023-05-03T06:36:09;102744.56;;;8.96;66.77
20983;BME280;10650;51.528;6.748;2023-05-03T06:38:37;102740.53;;;9.11;66.00
20983;BME280;10650;51.528;6.748;2023-05-03T06:41:24;102740.81;;;9.20;65.46
20983;BME280;10650;51.528;6.748;2023-05-03T06:43:58;102742.94;;;9.33;64.79
20983;BME280;10650;51.528;6.748;2023-05-03T06:46:47;102737.72;;;9.38;64.23
20983;BME280;10650;51.528;6.748;2023-05-03T06:52:08;102749.34;;;9.39;63.28
20983;BME280;10650;51.528;6.748;2023-05-03T06:54:56;102744.41;;;9.54;63.34
20983;BME280;10650;51.528;6.748;2023-05-03T07:55:27;102704.75;;;10.81;56.70
20983;BME280;10650;51.528;6.748;2023-05-03T07:58:15;102711.84;;;10.79;55.76
20983;BME280;10650;51.528;6.748;2023-05-03T08:01:09;102715.47;;;10.81;56.54
20983;BME280;10650;51.528;6.748;2023-05-03T08:04:08;102707.75;;;10.95;56.44
20983;BME280;10650;51.528;6.748;2023-05-03T08:07:11;102696.03;;;10.89;55.70
20983;BME280;10650;51.528;6.748;2023-05-03T08:10:04;102702.31;;;10.91;54.80
20983;BME280;10650;51.528;6.748;2023-05-03T08:13:02;102696.19;;;10.99;54.89
20983;BME280;10650;51.528;6.748;2023-05-03T08:15:52;102693.91;;;11.17;55.82
20983;BME280;10650;51.528;6.748;2023-05-03T09:10:48;102665.09;;;12.64;51.32
20983;BME280;10650;51.528;6.748;2023-05-03T09:13:30;102657.84;;;12.57;50.65
20983;BME280;10650;51.528;6.748;2023-05-03T09:17:12;102658.84;;;12.66;51.24
20983;BME280;10650;51.528;6.748;2023-05-03T09:20:33;102653.69;;;12.83;50.83
20983;BME280;10650;51.528;6.748;2023-05-03T09:23:08;102647.41;;;12.80;50.00
20983;BME280;10650;51.528;6.748;2023-05-03T09:26:33;102639.47;;;12.90;50.72
20983;BME280;10650;51.528;6.748;2023-05-03T09:29:32;102652.16;;;13.06;50.46
20983;BME280;10650;51.528;6.748;2023-05-03T09:32:13;102639.72;;;13.13;50.27
20983;BME280;10650;51.528;6.748;2023-05-03T09:35:10;102646.94;;;13.19;49.76
20983;BME280;10650;51.528;6.748;2023-05-03T09:39:08;102638.88;;;13.15;48.29
20983;BME280;10650;51.528;6.748;2023-05-03T09:48:12;102635.56;;;13.41;49.29
20983;BME280;10650;51.528;6.748;2023-05-03T09:51:14;102629.41;;;13.53;48.57
20983;BME280;10650;51.528;6.748;2023-05-03T09:56:19;102621.44;;;13.64;48.20
20983;BME280;10650;51.528;6.748;2023-05-03T09:57:52;102625.81;;;13.51;46.67
20983;BME280;10650;51.528;6.748;2023-05-03T10:00:43;102617.72;;;13.48;47.24
20983;BME280;10650;51.528;6.748;2023-05-03T10:03:58;102610.63;;;13.56;47.30
20983;BME280;10650;51.528;6.748;2023-05-03T10:06:37;102608.00;;;13.64;47.34
20983;BME280;10650;51.528;6.748;2023-05-03T10:09:27;102609.06;;;13.84;48.88
20983;BME280;10650;51.528;6.748;2023-05-03T10:16:34;102596.66;;;14.05;47.57
20983;BME280;10650;51.528;6.748;2023-05-03T10:19:45;102605.69;;;14.19;47.05
20983;BME280;10650;51.528;6.748;2023-05-03T10:23:03;102611.13;;;14.26;46.67
20983;BME280;10650;51.528;6.748;2023-05-03T10:26:14;102605.78;;;14.36;46.09
20983;BME280;10650;51.528;6.748;2023-05-03T10:29:46;102604.91;;;14.44;46.18
20983;BME280;10650;51.528;6.748;2023-05-03T10:32:46;102611.16;;;14.38;45.41
20983;BME280;10650;51.528;6.748;2023-05-03T10:39:48;102606.81;;;14.60;44.31
20983;BME280;10650;51.528;6.748;2023-05-03T10:43:39;102600.56;;;14.64;45.25
20983;BME280;10650;51.528;6.748;2023-05-03T10:45:57;102586.25;;;14.75;45.23
20983;BME280;10650;51.528;6.748;2023-05-03T10:49:21;102588.06;;;14.80;44.63
20983;BME280;10650;51.528;6.748;2023-05-03T10:53:32;102587.16;;;14.77;44.65
20983;BME280;10650;51.528;6.748;2023-05-03T11:04:08;102583.66;;;15.18;42.97
20983;BME280;10650;51.528;6.748;2023-05-03T11:07:08;102573.75;;;15.17;42.96
20983;BME280;10650;51.528;6.748;2023-05-03T11:09:40;102572.88;;;15.27;42.77
20983;BME280;10650;51.528;6.748;2023-05-03T11:12:10;102563.00;;;15.34;42.49
20983;BME280;10650;51.528;6.748;2023-05-03T11:14:40;102559.41;;;15.47;43.15
20983;BME280;10650;51.528;6.748;2023-05-03T11:17:09;102567.50;;;15.39;40.28
20983;BME280;10650;51.528;6.748;2023-05-03T11:19:43;102555.81;;;15.30;41.24
20983;BME280;10650;51.528;6.748;2023-05-03T11:22:11;102564.78;;;15.27;40.35
20983;BME280;10650;51.528;6.748;2023-05-03T11:24:40;102562.13;;;15.41;41.04
20983;BME280;10650;51.528;6.748;2023-05-03T11:27:10;102567.50;;;15.36;41.32
20983;BME280;10650;51.528;6.748;2023-05-03T11:29:47;102551.34;;;15.36;41.53
20983;BME280;10650;51.528;6.748;2023-05-03T11:32:17;102548.63;;;15.27;41.82
20983;BME280;10650;51.528;6.748;2023-05-03T11:34:47;102547.75;;;15.22;41.78
20983;BME280;10650;51.528;6.748;2023-05-03T11:37:16;102545.03;;;15.34;42.51
20983;BME280;10650;51.528;6.748;2023-05-03T11:39:44;102545.97;;;15.52;42.79
20983;BME280;10650;51.528;6.748;2023-05-03T11:42:13;102539.66;;;15.59;42.48
20983;BME280;10650;51.528;6.748;2023-05-03T11:44:41;102541.44;;;15.79;42.35
20983;BME280;10650;51.528;6.748;2023-05-03T11:47:09;102540.53;;;15.86;41.81
20983;BME280;10650;51.528;6.748;2023-05-03T11:49:38;102533.34;;;15.89;41.08
20983;BME280;10650;51.528;6.748;2023-05-03T11:52:08;102536.94;;;15.90;41.30
20983;BME280;10650;51.528;6.748;2023-05-03T11:54:39;102540.56;;;15.70;40.82
20983;BME280;10650;51.528;6.748;2023-05-03T11:57:11;102548.63;;;15.66;40.36
20983;BME280;10650;51.528;6.748;2023-05-03T11:59:39;102554.91;;;15.72;39.59
20983;BME280;10650;51.528;6.748;2023-05-03T12:02:11;102545.03;;;15.88;40.05
20983;BME280;10650;51.528;6.748;2023-05-03T12:04:41;102545.03;;;15.96;40.55
20983;BME280;10650;51.528;6.748;2023-05-03T12:07:30;102544.09;;;16.02;40.47
20983;BME280;10650;51.528;6.748;2023-05-03T12:09:59;102542.25;;;16.08;40.32
20983;BME280;10650;51.528;6.748;2023-05-03T12:12:31;102532.34;;;16.18;40.77
20983;BME280;10650;51.528;6.748;2023-05-03T12:15:07;102536.00;;;15.99;40.35
20983;BME280;10650;51.528;6.748;2023-05-03T12:17:38;102537.84;;;15.80;40.21
20983;BME280;10650;51.528;6.748;2023-05-03T12:20:16;102541.44;;;15.80;40.39
20983;BME280;10650;51.528;6.748;2023-05-03T12:22:50;102530.69;;;15.65;39.06
20983;BME280;10650;51.528;6.748;2023-05-03T12:25:23;102524.38;;;15.64;40.11
20983;BME280;10650;51.528;6.748;2023-05-03T12:28:00;102520.78;;;15.78;40.39
20983;BME280;10650;51.528;6.748;2023-05-03T12:30:37;102520.78;;;15.84;40.37
20983;BME280;10650;51.528;6.748;2023-05-03T12:33:07;102521.69;;;15.69;39.54
20983;BME280;10650;51.528;6.748;2023-05-03T12:35:36;102515.41;;;15.67;39.99
20983;BME280;10650;51.528;6.748;2023-05-03T12:38:08;102511.75;;;15.97;40.16
20983;BME280;10650;51.528;6.748;2023-05-03T12:40:43;102499.19;;;15.91;38.71
20983;BME280;10650;51.528;6.748;2023-05-03T12:43:13;102502.72;;;16.07;39.11
20983;BME280;10650;51.528;6.748;2023-05-03T12:45:42;102494.66;;;16.03;39.20
20983;BME280;10650;51.528;6.748;2023-05-03T12:48:33;102489.25;;;16.07;38.07
20983;BME280;10650;51.528;6.748;2023-05-03T12:51:04;102478.44;;;16.07;39.15
20983;BME280;10650;51.528;6.748;2023-05-03T12:53:47;102479.38;;;16.09;38.82
20983;BME280;10650;51.528;6.748;2023-05-03T12:56:41;102483.69;;;16.41;39.93
20983;BME280;10650;51.528;6.748;2023-05-03T12:59:16;102475.56;;;16.49;39.19
20983;BME280;10650;51.528;6.748;2023-05-03T13:02:05;102469.16;;;16.66;38.11
20983;BME280;10650;51.528;6.748;2023-05-03T13:04:54;102462.72;;;16.84;39.12
20983;BME280;10650;51.528;6.748;2023-05-03T13:07:27;102464.38;;;17.03;39.11
20983;BME280;10650;51.528;6.748;2023-05-03T13:10:04;102459.94;;;16.96;38.38
20983;BME280;10650;51.528;6.748;2023-05-03T13:12:35;102462.66;;;16.96;36.82
20983;BME280;10650;51.528;6.748;2023-05-03T13:15:05;102458.22;;;16.89;36.16
20983;BME280;10650;51.528;6.748;2023-05-03T13:17:33;102449.25;;;16.82;36.63
20983;BME280;10650;51.528;6.748;2023-05-03T13:20:02;102429.31;;;17.00;37.05
20983;BME280;10650;51.528;6.748;2023-05-03T13:22:33;102430.09;;;17.15;37.89
20983;BME280;10650;51.528;6.748;2023-05-03T13:25:03;102420.16;;;17.20;36.82
20983;BME280;10650;51.528;6.748;2023-05-03T13:27:31;102421.16;;;17.06;36.53
20983;BME280;10650;51.528;6.748;2023-05-03T13:30:00;102418.44;;;17.11;36.30
20983;BME280;10650;51.528;6.748;2023-05-03T13:32:31;102422.91;;;17.14;36.75
20983;BME280;10650;51.528;6.748;2023-05-03T13:35:02;102413.84;;;17.18;37.85
20983;BME280;10650;51.528;6.748;2023-05-03T13:37:32;102407.78;;;16.94;37.10
20983;BME280;10650;51.528;6.748;2023-05-03T13:40:00;102401.47;;;16.93;37.73
20983;BME280;10650;51.528;6.748;2023-05-03T13:42:34;102397.84;;;16.96;37.81
20983;BME280;10650;51.528;6.748;2023-05-03T13:45:08;102403.09;;;17.13;38.65
20983;BME280;10650;51.528;6.748;2023-05-03T13:47:36;102395.84;;;17.20;38.49
20983;BME280;10650;51.528;6.748;2023-05-03T13:50:27;102388.66;;;17.19;37.90
20983;BME280;10650;51.528;6.748;2023-05-03T13:52:57;102386.81;;;17.22;37.94
20983;BME280;10650;51.528;6.748;2023-05-03T13:55:26;102385.09;;;17.12;36.98
20983;BME280;10650;51.528;6.748;2023-05-03T13:57:56;102382.56;;;16.98;36.94
20983;BME280;10650;51.528;6.748;2023-05-03T14:00:25;102373.53;;;16.98;37.20
20983;BME280;10650;51.528;6.748;2023-05-03T14:02:57;102376.03;;;17.21;36.81
20983;BME280;10650;51.528;6.748;2023-05-03T14:05:26;102366.97;;;17.25;36.91
20983;BME280;10650;51.528;6.748;2023-05-03T14:07:55;102362.25;;;17.44;36.35
20983;BME280;10650;51.528;6.748;2023-05-03T14:10:23;102358.44;;;17.60;35.70
20983;BME280;10650;51.528;6.748;2023-05-03T14:12:51;102357.44;;;17.68;34.17
20983;BME280;10650;51.528;6.748;2023-05-03T14:15:21;102343.13;;;17.62;34.70
20983;BME280;10650;51.528;6.748;2023-05-03T14:17:49;102340.41;;;17.62;35.00
20983;BME280;10650;51.528;6.748;2023-05-03T14:20:28;102329.50;;;17.70;36.23
20983;BME280;10650;51.528;6.748;2023-05-03T14:22:56;102349.28;;;17.71;35.88
20983;BME280;10650;51.528;6.748;2023-05-03T14:25:25;102340.41;;;17.64;35.81
20983;BME280;10650;51.528;6.748;2023-05-03T14:27:53;102335.81;;;17.69;36.25
20983;BME280;10650;51.528;6.748;2023-05-03T14:30:23;102339.31;;;17.77;35.74
20983;BME280;10650;51.528;6.748;2023-05-03T14:32:52;102334.66;;;17.87;35.13
20983;BME280;10650;51.528;6.748;2023-05-03T14:35:20;102327.53;;;17.81;33.84
20983;BME280;10650;51.528;6.748;2023-05-03T14:37:48;102333.19;;;17.64;34.45
20983;BME280;10650;51.528;6.748;2023-05-03T14:40:17;102319.78;;;17.57;34.63
20983;BME280;10650;51.528;6.748;2023-05-03T14:42:46;102336.94;;;17.53;35.61
20983;BME280;10650;51.528;6.748;2023-05-03T14:45:14;102332.53;;;17.45;34.47
20983;BME280;10650;51.528;6.748;2023-05-03T14:47:44;102319.25;;;17.27;34.95
20983;BME280;10650;51.528;6.748;2023-05-03T14:50:12;102314.66;;;17.34;35.25
20983;BME280;10650;51.528;6.748;2023-05-03T14:52:41;102318.06;;;17.50;35.78
20983;BME280;10650;51.528;6.748;2023-05-03T14:55:12;102310.69;;;17.62;35.64
20983;BME280;10650;51.528;6.748;2023-05-03T14:57:40;102308.75;;;17.71;35.88
20983;BME280;10650;51.528;6.748;2023-05-03T15:00:10;102307.91;;;17.69;35.34
20983;BME280;10650;51.528;6.748;2023-05-03T15:02:40;102316.06;;;17.64;35.55
20983;BME280;10650;51.528;6.748;2023-05-03T15:05:13;102315.31;;;17.53;35.04
20983;BME280;10650;51.528;6.748;2023-05-03T15:07:43;102309.00;;;17.54;34.93
20983;BME280;10650;51.528;6.748;2023-05-03T15:10:14;102311.72;;;17.51;34.72
20983;BME280;10650;51.528;6.748;2023-05-03T15:12:47;102318.13;;;17.46;35.46
20983;BME280;10650;51.528;6.748;2023-05-03T15:15:42;102319.94;;;17.43;35.27
20983;BME280;10650;51.528;6.748;2023-05-03T15:22:32;102301.91;;;17.46;35.31
20983;BME280;10650;51.528;6.748;2023-05-03T15:25:05;102310.00;;;17.46;35.29
20983;BME280;10650;51.528;6.748;2023-05-03T15:27:34;102302.13;;;17.29;34.91
20983;BME280;10650;51.528;6.748;2023-05-03T15:30:04;102302.16;;;17.25;34.99
20983;BME280;10650;51.528;6.748;2023-05-03T15:32:34;102307.66;;;17.16;33.98
20983;BME280;10650;51.528;6.748;2023-05-03T15:35:04;102304.19;;;17.04;34.88
20983;BME280;10650;51.528;6.748;2023-05-03T15:37:39;102301.50;;;17.04;35.16
20983;BME280;10650;51.528;6.748;2023-05-03T15:40:11;102295.19;;;17.05;34.94
20983;BME280;10650;51.528;6.748;2023-05-03T15:42:39;102296.03;;;17.09;35.95
20983;BME280;10650;51.528;6.748;2023-05-03T15:45:08;102298.72;;;17.09;35.96
20983;BME280;10650;51.528;6.748;2023-05-03T15:47:36;102288.97;;;16.99;35.72
20983;BME280;10650;51.528;6.748;2023-05-03T15:50:11;102290.84;;;16.89;36.35
20983;BME280;10650;51.528;6.748;2023-05-03T15:52:41;102292.50;;;17.05;36.75
20983;BME280;10650;51.528;6.748;2023-05-03T15:55:09;102287.84;;;17.18;35.88
20983;BME280;10650;51.528;6.748;2023-05-03T15:57:37;102282.41;;;17.20;36.00